Wetterdaten: Freitag, 19.02.2016
Datum Zeit Temp. A. Feuchte A. Luftdruck Regen Wind Richtung Richtung Sonnenschein UV Solar Windben
19.02.2016 00:00 -1,3 C 84 % 1016,6 hPa 0,0 mm 0,0 km/h (0 Bft) N 0 0 min 0 UV-I 0 W/m 0,0 km/h (0 Bft)
19.02.2016 00:10 -1,4 C 84 % 1016,6 hPa 0,0 mm 0,0 km/h (0 Bft) N 0 0 min 0 UV-I 0 W/m 0,0 km/h (0 Bft)
19.02.2016 00:20 -1,5 C 84 % 1016,7 hPa 0,0 mm 0,0 km/h (0 Bft) N 0 0 min 0 UV-I 0 W/m 0,0 km/h (0 Bft)
19.02.2016 00:30 -1,6 C 84 % 1016,7 hPa 0,0 mm 0,0 km/h (0 Bft) N 0 0 min 0 UV-I 0 W/m 0,0 km/h (0 Bft)
19.02.2016 00:40 -1,7 C 84 % 1016,7 hPa 0,0 mm 0,0 km/h (0 Bft) N 0 0 min 0 UV-I 0 W/m 0,0 km/h (0 Bft)
19.02.2016 00:50 -1,7 C 84 % 1016,7 hPa 0,0 mm 0,0 km/h (0 Bft) N 0 0 min 0 UV-I 0 W/m 0,0 km/h (0 Bft)
19.02.2016 01:00 -1,8 C 85 % 1016,8 hPa 0,0 mm 0,0 km/h (0 Bft) N 0 0 min 0 UV-I 0 W/m 0,0 km/h (0 Bft)
19.02.2016 01:10 -1,8 C 84 % 1016,7 hPa 0,0 mm 0,0 km/h (0 Bft) N 0 0 min 0 UV-I 0 W/m 0,0 km/h (0 Bft)
19.02.2016 01:20 -1,9 C 85 % 1016,9 hPa 0,0 mm 0,0 km/h (0 Bft) N 0 0 min 0 UV-I 0 W/m 0,0 km/h (0 Bft)
19.02.2016 01:30 -1,9 C 85 % 1016,9 hPa 0,0 mm 0,0 km/h (0 Bft) N 0 0 min 0 UV-I 0 W/m 0,0 km/h (0 Bft)
19.02.2016 01:40 -1,9 C 85 % 1016,9 hPa 0,0 mm 0,0 km/h (0 Bft) N 0 0 min 0 UV-I 0 W/m 0,0 km/h (0 Bft)
19.02.2016 01:50 -1,9 C 85 % 1016,8 hPa 0,0 mm 0,0 km/h (0 Bft) N 0 0 min 0 UV-I 0 W/m 0,0 km/h (0 Bft)
19.02.2016 02:00 -1,9 C 85 % 1016,7 hPa 0,0 mm 0,0 km/h (0 Bft) N 0 0 min 0 UV-I 0 W/m 0,0 km/h (0 Bft)
19.02.2016 02:10 -1,9 C 86 % 1016,7 hPa 0,0 mm 0,0 km/h (0 Bft) N 0 0 min 0 UV-I 0 W/m 0,0 km/h (0 Bft)
19.02.2016 02:20 -2,0 C 86 % 1016,7 hPa 0,0 mm 0,0 km/h (0 Bft) N 0 0 min 0 UV-I 0 W/m 0,0 km/h (0 Bft)
19.02.2016 02:30 -2,0 C 86 % 1016,8 hPa 0,0 mm 0,0 km/h (0 Bft) N 0 0 min 0 UV-I 0 W/m 0,0 km/h (0 Bft)
19.02.2016 02:40 -1,9 C 86 % 1016,8 hPa 0,0 mm 0,0 km/h (0 Bft) N 0 0 min 0 UV-I 0 W/m 0,0 km/h (0 Bft)
19.02.2016 02:50 -1,9 C 86 % 1016,8 hPa 0,0 mm 0,0 km/h (0 Bft) N 0 0 min 0 UV-I 0 W/m 0,0 km/h (0 Bft)
19.02.2016 03:00 -1,9 C 86 % 1016,8 hPa 0,0 mm 0,0 km/h (0 Bft) N 0 0 min 0 UV-I 0 W/m 0,0 km/h (0 Bft)
19.02.2016 03:10 -1,9 C 86 % 1016,7 hPa 0,0 mm 0,0 km/h (0 Bft) N 0 0 min 0 UV-I 0 W/m 0,0 km/h (0 Bft)
19.02.2016 03:20 -1,9 C 87 % 1016,6 hPa 0,0 mm 0,0 km/h (0 Bft) N 0 0 min 0 UV-I 0 W/m 0,0 km/h (0 Bft)
19.02.2016 03:30 -1,9 C 87 % 1016,7 hPa 0,0 mm 0,0 km/h (0 Bft) N 0 0 min 0 UV-I 0 W/m 0,0 km/h (0 Bft)
19.02.2016 03:40 -1,9 C 87 % 1016,7 hPa 0,0 mm 0,0 km/h (0 Bft) N 0 0 min 0 UV-I 0 W/m 0,0 km/h (0 Bft)
19.02.2016 03:50 -1,9 C 87 % 1016,8 hPa 0,0 mm 0,0 km/h (0 Bft) N 0 0 min 0 UV-I 0 W/m 0,0 km/h (0 Bft)
19.02.2016 04:00 -1,9 C 87 % 1016,8 hPa 0,0 mm 0,0 km/h (0 Bft) N 0 0 min 0 UV-I 0 W/m 0,0 km/h (0 Bft)
19.02.2016 04:10 -1,9 C 87 % 1016,9 hPa 0,0 mm 0,0 km/h (0 Bft) N 0 0 min 0 UV-I 0 W/m 0,0 km/h (0 Bft)
19.02.2016 04:20 -1,9 C 88 % 1016,9 hPa 0,0 mm 0,0 km/h (0 Bft) N 0 0 min 0 UV-I 0 W/m 0,0 km/h (0 Bft)
19.02.2016 04:30 -1,8 C 87 % 1016,8 hPa 0,0 mm 0,0 km/h (0 Bft) N 0 0 min 0 UV-I 0 W/m 0,0 km/h (0 Bft)
19.02.2016 04:40 -1,8 C 87 % 1016,7 hPa 0,0 mm 0,0 km/h (0 Bft) N 0 0 min 0 UV-I 0 W/m 0,0 km/h (0 Bft)
19.02.2016 04:50 -1,8 C 88 % 1016,8 hPa 0,0 mm 0,0 km/h (0 Bft) N 0 0 min 0 UV-I 0 W/m 0,0 km/h (0 Bft)
19.02.2016 05:00 -1,8 C 88 % 1016,8 hPa 0,0 mm 0,0 km/h (0 Bft) N 0 0 min 0 UV-I 0 W/m 0,0 km/h (0 Bft)
19.02.2016 05:10 -1,8 C 88 % 1016,8 hPa 0,0 mm 0,0 km/h (0 Bft) N 0 0 min 0 UV-I 0 W/m 0,0 km/h (0 Bft)
19.02.2016 05:20 -1,8 C 88 % 1016,8 hPa 0,0 mm 0,0 km/h (0 Bft) N 0 0 min 0 UV-I 0 W/m 0,0 km/h (0 Bft)
19.02.2016 05:30 -1,8 C 88 % 1016,9 hPa 0,0 mm 0,0 km/h (0 Bft) N 0 0 min 0 UV-I 0 W/m 0,0 km/h (0 Bft)
19.02.2016 05:40 -1,8 C 88 % 1017,0 hPa 0,0 mm 0,0 km/h (0 Bft) N 0 0 min 0 UV-I 0 W/m 0,0 km/h (0 Bft)
19.02.2016 05:50 -1,8 C 88 % 1017,0 hPa 0,0 mm 0,0 km/h (0 Bft) N 0 0 min 0 UV-I 0 W/m 0,0 km/h (0 Bft)
19.02.2016 06:00 -1,8 C 88 % 1017,0 hPa 0,0 mm 0,0 km/h (0 Bft) N 0 0 min 0 UV-I 0 W/m 0,0 km/h (0 Bft)
19.02.2016 06:10 -1,8 C 88 % 1017,1 hPa 0,0 mm 0,0 km/h (0 Bft) N 0 0 min 0 UV-I 0 W/m 0,0 km/h (0 Bft)
19.02.2016 06:20 -1,8 C 88 % 1017,1 hPa 0,0 mm 0,0 km/h (0 Bft) N 0 0 min 0 UV-I 0 W/m 0,0 km/h (0 Bft)
19.02.2016 06:30 -1,8 C 88 % 1017,1 hPa 0,0 mm 0,0 km/h (0 Bft) N 0 0 min 0 UV-I 0 W/m 0,0 km/h (0 Bft)
19.02.2016 06:40 -1,8 C 88 % 1017,2 hPa 0,0 mm 0,0 km/h (0 Bft) N 0 0 min 0 UV-I 0 W/m 0,0 km/h (0 Bft)
19.02.2016 06:50 -1,8 C 88 % 1017,2 hPa 0,0 mm 0,0 km/h (0 Bft) N 0 0 min 0 UV-I 0 W/m 0,0 km/h (0 Bft)
19.02.2016 07:00 -1,8 C 88 % 1017,3 hPa 0,0 mm 0,0 km/h (0 Bft) N 0 0 min 0 UV-I 0 W/m 0,0 km/h (0 Bft)
19.02.2016 07:10 -1,8 C 88 % 1017,7 hPa 0,0 mm 0,0 km/h (0 Bft) N 0 0 min 0 UV-I 0 W/m 0,0 km/h (0 Bft)
19.02.2016 07:20 -1,8 C 89 % 1017,6 hPa 0,0 mm 0,0 km/h (0 Bft) N 0 0 min 0 UV-I 0 W/m 0,0 km/h (0 Bft)
19.02.2016 07:30 -1,8 C 89 % 1017,7 hPa 0,0 mm 0,0 km/h (0 Bft) N 0 0 min 0 UV-I 0 W/m 0,0 km/h (0 Bft)
19.02.2016 07:40 -1,8 C 89 % 1017,8 hPa 0,0 mm 0,0 km/h (0 Bft) N 0 0 min 0 UV-I 0 W/m 0,0 km/h (0 Bft)
19.02.2016 07:50 -1,8 C 89 % 1017,9 hPa 0,0 mm 0,0 km/h (0 Bft) N 0 0 min 0 UV-I 0 W/m 0,0 km/h (0 Bft)
19.02.2016 08:00 -1,7 C 89 % 1018,0 hPa 0,0 mm 0,0 km/h (0 Bft) N 0 0 min 0 UV-I 9 W/m 0,0 km/h (0 Bft)
19.02.2016 08:10 -1,7 C 89 % 1018,3 hPa 0,0 mm 0,0 km/h (0 Bft) N 0 0 min 0 UV-I 14 W/m 0,0 km/h (0 Bft)
19.02.2016 08:20 -1,6 C 89 % 1018,4 hPa 0,0 mm 0,0 km/h (0 Bft) N 0 0 min 0 UV-I 19 W/m 0,0 km/h (0 Bft)
19.02.2016 08:30 -1,6 C 89 % 1018,6 hPa 0,0 mm 0,0 km/h (0 Bft) N 0 0 min 0 UV-I 26 W/m 0,0 km/h (0 Bft)
19.02.2016 08:40 -1,4 C 89 % 1018,7 hPa 0,0 mm 0,0 km/h (0 Bft) N 0 0 min 0 UV-I 32 W/m 0,0 km/h (0 Bft)
19.02.2016 08:50 -1,3 C 89 % 1018,7 hPa 0,0 mm 0,0 km/h (0 Bft) SO 135 0 min 0 UV-I 42 W/m 1,6 km/h (1 Bft)
19.02.2016 09:00 -1,2 C 90 % 1018,8 hPa 0,0 mm 0,0 km/h (0 Bft) N 0 0 min 0 UV-I 47 W/m 0,0 km/h (0 Bft)
19.02.2016 09:10 -1,0 C 90 % 1018,8 hPa 0,0 mm 0,0 km/h (0 Bft) N 0 0 min 0 UV-I 54 W/m 0,0 km/h (0 Bft)
19.02.2016 09:20 -0,8 C 90 % 1018,8 hPa 0,0 mm 0,0 km/h (0 Bft) N 0 0 min 0 UV-I 63 W/m 0,0 km/h (0 Bft)
19.02.2016 09:30 -0,6 C 90 % 1018,9 hPa 0,0 mm 0,0 km/h (0 Bft) N 0 0 min 0 UV-I 81 W/m 0,0 km/h (0 Bft)
19.02.2016 09:40 -0,4 C 90 % 1018,9 hPa 0,0 mm 0,0 km/h (0 Bft) N 0 0 min 0 UV-I 123 W/m 0,0 km/h (0 Bft)
19.02.2016 09:50 0,0 C 90 % 1019,1 hPa 0,0 mm 0,0 km/h (0 Bft) N 0 10 min 1 UV-I 169 W/m 0,0 km/h (0 Bft)
19.02.2016 10:00 0,7 C 89 % 1019,1 hPa 0,0 mm 0,0 km/h (0 Bft) N 0 10 min 1 UV-I 202 W/m 0,0 km/h (0 Bft)
19.02.2016 10:10 1,2 C 88 % 1019,1 hPa 0,0 mm 0,0 km/h (0 Bft) O-SO 112 10 min 1 UV-I 211 W/m 3,2 km/h (1 Bft)
19.02.2016 10:20 1,4 C 87 % 1019,2 hPa 0,0 mm 1,6 km/h (1 Bft) SO 135 10 min 1 UV-I 204 W/m 6,4 km/h (2 Bft)
19.02.2016 10:30 1,6 C 85 % 1019,2 hPa 0,0 mm 1,6 km/h (1 Bft) SO 135 0 min 1 UV-I 192 W/m 4,8 km/h (1 Bft)
19.02.2016 10:40 1,9 C 84 % 1019,1 hPa 0,0 mm 1,6 km/h (1 Bft) SO 135 10 min 1 UV-I 211 W/m 4,8 km/h (1 Bft)
19.02.2016 10:50 2,2 C 83 % 1019,2 hPa 0,0 mm 1,6 km/h (1 Bft) SO 135 10 min 1 UV-I 229 W/m 4,8 km/h (1 Bft)
19.02.2016 11:00 2,4 C 82 % 1019,2 hPa 0,0 mm 1,6 km/h (1 Bft) S-SO 157 0 min 1 UV-I 186 W/m 8,0 km/h (2 Bft)
19.02.2016 11:10 2,5 C 81 % 1019,3 hPa 0,0 mm 1,6 km/h (1 Bft) W-SW 247 10 min 1 UV-I 244 W/m 11,3 km/h (2 Bft)
19.02.2016 11:20 2,7 C 81 % 1019,5 hPa 0,0 mm 1,6 km/h (1 Bft) W-SW 247 10 min 1 UV-I 279 W/m 8,0 km/h (2 Bft)
19.02.2016 11:30 2,8 C 80 % 1019,5 hPa 0,0 mm 1,6 km/h (1 Bft) W-SW 247 10 min 1 UV-I 271 W/m 8,0 km/h (2 Bft)
19.02.2016 11:40 2,9 C 80 % 1019,4 hPa 0,0 mm 1,6 km/h (1 Bft) W-SW 247 0 min 1 UV-I 211 W/m 8,0 km/h (2 Bft)
19.02.2016 11:50 3,1 C 80 % 1019,5 hPa 0,0 mm 1,6 km/h (1 Bft) W-SW 247 10 min 1 UV-I 308 W/m 4,8 km/h (1 Bft)
19.02.2016 12:00 3,6 C 80 % 1019,6 hPa 0,0 mm 1,6 km/h (1 Bft) W-SW 247 10 min 1 UV-I 320 W/m 6,4 km/h (2 Bft)
19.02.2016 12:10 3,6 C 79 % 1019,6 hPa 0,0 mm 1,6 km/h (1 Bft) W-SW 247 0 min 1 UV-I 179 W/m 8,0 km/h (2 Bft)
19.02.2016 12:20 3,6 C 79 % 1019,6 hPa 0,0 mm 1,6 km/h (1 Bft) W-SW 247 0 min 1 UV-I 165 W/m 6,4 km/h (2 Bft)
19.02.2016 12:30 3,5 C 79 % 1019,7 hPa 0,0 mm 1,6 km/h (1 Bft) W-SW 247 0 min 1 UV-I 202 W/m 8,0 km/h (2 Bft)
19.02.2016 12:40 3,4 C 79 % 1019,8 hPa 0,0 mm 1,6 km/h (1 Bft) W 270 0 min 1 UV-I 197 W/m 8,0 km/h (2 Bft)
19.02.2016 12:50 3,4 C 79 % 1019,7 hPa 0,0 mm 1,6 km/h (1 Bft) W-SW 247 0 min 1 UV-I 153 W/m 8,0 km/h (2 Bft)
19.02.2016 13:00 3,5 C 79 % 1019,6 hPa 0,0 mm 3,2 km/h (1 Bft) W-SW 247 0 min 1 UV-I 236 W/m 6,4 km/h (2 Bft)
19.02.2016 13:10 3,6 C 79 % 1019,6 hPa 0,0 mm 1,6 km/h (1 Bft) W-SW 247 0 min 1 UV-I 223 W/m 6,4 km/h (2 Bft)
19.02.2016 13:20 3,7 C 79 % 1019,5 hPa 0,0 mm 1,6 km/h (1 Bft) W-SW 247 0 min 1 UV-I 179 W/m 6,4 km/h (2 Bft)
19.02.2016 13:30 3,8 C 79 % 1019,6 hPa 0,0 mm 1,6 km/h (1 Bft) W-SW 247 0 min 1 UV-I 241 W/m 6,4 km/h (2 Bft)
19.02.2016 13:40 4,1 C 79 % 1019,6 hPa 0,0 mm 0,0 km/h (0 Bft) W-SW 247 10 min 1 UV-I 246 W/m 3,2 km/h (1 Bft)
19.02.2016 13:50 4,3 C 78 % 1019,6 hPa 0,0 mm 3,2 km/h (1 Bft) W-SW 247 0 min 1 UV-I 209 W/m 8,0 km/h (2 Bft)
19.02.2016 14:00 4,2 C 78 % 1019,5 hPa 0,0 mm 0,0 km/h (0 Bft) W-SW 247 0 min 1 UV-I 163 W/m 8,0 km/h (2 Bft)
19.02.2016 14:10 4,3 C 78 % 1019,5 hPa 0,0 mm 1,6 km/h (1 Bft) W-SW 247 0 min 1 UV-I 169 W/m 6,4 km/h (2 Bft)
19.02.2016 14:20 4,3 C 78 % 1019,5 hPa 0,0 mm 1,6 km/h (1 Bft) W 270 0 min 1 UV-I 202 W/m 8,0 km/h (2 Bft)
19.02.2016 14:30 4,4 C 78 % 1019,4 hPa 0,0 mm 0,0 km/h (0 Bft) W 270 0 min 1 UV-I 192 W/m 4,8 km/h (1 Bft)
19.02.2016 14:40 4,5 C 77 % 1019,5 hPa 0,0 mm 0,0 km/h (0 Bft) W 270 0 min 1 UV-I 193 W/m 4,8 km/h (1 Bft)
19.02.2016 14:50 4,6 C 76 % 1019,4 hPa 0,0 mm 1,6 km/h (1 Bft) W 270 0 min 1 UV-I 160 W/m 4,8 km/h (1 Bft)
19.02.2016 15:00 4,6 C 76 % 1019,5 hPa 0,0 mm 1,6 km/h (1 Bft) W 270 0 min 1 UV-I 146 W/m 6,4 km/h (2 Bft)
19.02.2016 15:10 4,6 C 75 % 1019,5 hPa 0,0 mm 1,6 km/h (1 Bft) W-SW 247 0 min 1 UV-I 132 W/m 6,4 km/h (2 Bft)
19.02.2016 15:20 4,6 C 75 % 1019,7 hPa 0,0 mm 1,6 km/h (1 Bft) W-SW 247 0 min 1 UV-I 132 W/m 4,8 km/h (1 Bft)
19.02.2016 15:30 4,6 C 75 % 1019,6 hPa 0,0 mm 1,6 km/h (1 Bft) W-SW 247 0 min 1 UV-I 123 W/m 4,8 km/h (1 Bft)
19.02.2016 15:40 4,7 C 75 % 1019,6 hPa 0,0 mm 1,6 km/h (1 Bft) W-SW 247 0 min 0 UV-I 102 W/m 4,8 km/h (1 Bft)
19.02.2016 15:50 4,7 C 75 % 1019,6 hPa 0,0 mm 0,0 km/h (0 Bft) W-SW 247 0 min 0 UV-I 83 W/m 3,2 km/h (1 Bft)
19.02.2016 16:00 4,7 C 75 % 1019,6 hPa 0,0 mm 1,6 km/h (1 Bft) W-SW 247 0 min 0 UV-I 53 W/m 4,8 km/h (1 Bft)
19.02.2016 16:10 4,7 C 75 % 1019,6 hPa 0,0 mm 1,6 km/h (1 Bft) W-SW 247 0 min 0 UV-I 39 W/m 6,4 km/h (2 Bft)
19.02.2016 16:20 4,6 C 75 % 1019,6 hPa 0,0 mm 1,6 km/h (1 Bft) W-SW 247 0 min 0 UV-I 54 W/m 6,4 km/h (2 Bft)
19.02.2016 16:30 4,6 C 75 % 1019,7 hPa 0,0 mm 1,6 km/h (1 Bft) W 270 0 min 0 UV-I 53 W/m 6,4 km/h (2 Bft)
19.02.2016 16:40 4,5 C 76 % 1019,6 hPa 0,0 mm 1,6 km/h (1 Bft) W 270 10 min 0 UV-I 97 W/m 8,0 km/h (2 Bft)
19.02.2016 16:50 4,5 C 76 % 1019,6 hPa 0,0 mm 0,0 km/h (0 Bft) W 270 10 min 0 UV-I 100 W/m 3,2 km/h (1 Bft)
19.02.2016 17:00 4,6 C 76 % 1019,6 hPa 0,0 mm 1,6 km/h (1 Bft) W 270 10 min 0 UV-I 74 W/m 8,0 km/h (2 Bft)
19.02.2016 17:10 4,5 C 76 % 1019,6 hPa 0,0 mm 1,6 km/h (1 Bft) W-SW 247 10 min 0 UV-I 44 W/m 6,4 km/h (2 Bft)
19.02.2016 17:20 4,4 C 76 % 1019,6 hPa 0,0 mm 1,6 km/h (1 Bft) W-SW 247 0 min 0 UV-I 25 W/m 6,4 km/h (2 Bft)
19.02.2016 17:30 4,4 C 76 % 1019,6 hPa 0,0 mm 1,6 km/h (1 Bft) W-SW 247 0 min 0 UV-I 9 W/m 6,4 km/h (2 Bft)
19.02.2016 17:40 4,3 C 76 % 1019,7 hPa 0,0 mm 1,6 km/h (1 Bft) W-SW 247 0 min 0 UV-I 7 W/m 6,4 km/h (2 Bft)
19.02.2016 17:50 4,1 C 76 % 1019,9 hPa 0,0 mm 1,6 km/h (1 Bft) W-SW 247 0 min 0 UV-I 0 W/m 6,4 km/h (2 Bft)
19.02.2016 18:00 3,9 C 76 % 1019,9 hPa 0,0 mm 1,6 km/h (1 Bft) W-SW 247 0 min 0 UV-I 0 W/m 4,8 km/h (1 Bft)
19.02.2016 18:10 3,9 C 77 % 1020,0 hPa 0,0 mm 1,6 km/h (1 Bft) W-SW 247 0 min 0 UV-I 0 W/m 3,2 km/h (1 Bft)
19.02.2016 18:20 3,8 C 77 % 1020,1 hPa 0,0 mm 0,0 km/h (0 Bft) W-SW 247 0 min 0 UV-I 0 W/m 3,2 km/h (1 Bft)
19.02.2016 18:30 3,8 C 78 % 1020,2 hPa 0,0 mm 0,0 km/h (0 Bft) W-SW 247 0 min 0 UV-I 0 W/m 6,4 km/h (2 Bft)
19.02.2016 18:40 3,8 C 78 % 1020,3 hPa 0,0 mm 0,0 km/h (0 Bft) W-SW 247 0 min 0 UV-I 0 W/m 3,2 km/h (1 Bft)
19.02.2016 18:50 3,8 C 79 % 1020,3 hPa 0,0 mm 1,6 km/h (1 Bft) W-SW 247 0 min 0 UV-I 0 W/m 4,8 km/h (1 Bft)
19.02.2016 19:00 3,7 C 79 % 1020,4 hPa 0,0 mm 1,6 km/h (1 Bft) W-SW 247 0 min 0 UV-I 0 W/m 4,8 km/h (1 Bft)
19.02.2016 19:10 3,7 C 80 % 1020,4 hPa 0,0 mm 0,0 km/h (0 Bft) W-SW 247 0 min 0 UV-I 0 W/m 6,4 km/h (2 Bft)
19.02.2016 19:20 3,7 C 80 % 1020,4 hPa 0,0 mm 0,0 km/h (0 Bft) W-SW 247 0 min 0 UV-I 0 W/m 3,2 km/h (1 Bft)
19.02.2016 19:30 3,6 C 80 % 1020,5 hPa 0,0 mm 0,0 km/h (0 Bft) W-SW 247 0 min 0 UV-I 0 W/m 3,2 km/h (1 Bft)
19.02.2016 19:40 3,5 C 80 % 1020,5 hPa 0,0 mm 0,0 km/h (0 Bft) W-SW 247 0 min 0 UV-I 0 W/m 1,6 km/h (1 Bft)
19.02.2016 19:50 3,3 C 80 % 1020,4 hPa 0,0 mm 0,0 km/h (0 Bft) N 0 0 min 0 UV-I 0 W/m 0,0 km/h (0 Bft)
19.02.2016 20:00 3,1 C 80 % 1020,5 hPa 0,0 mm 0,0 km/h (0 Bft) N 0 0 min 0 UV-I 0 W/m 0,0 km/h (0 Bft)
19.02.2016 20:10 2,9 C 80 % 1020,4 hPa 0,0 mm 0,0 km/h (0 Bft) W-SW 247 0 min 0 UV-I 0 W/m 1,6 km/h (1 Bft)
19.02.2016 20:20 2,7 C 80 % 1020,0 hPa 0,0 mm 0,0 km/h (0 Bft) W-SW 247 0 min 0 UV-I 0 W/m 1,6 km/h (1 Bft)
19.02.2016 20:30 2,5 C 80 % 1020,0 hPa 0,0 mm 0,0 km/h (0 Bft) N 0 0 min 0 UV-I 0 W/m 0,0 km/h (0 Bft)
19.02.2016 20:40 2,2 C 80 % 1020,1 hPa 0,0 mm 0,0 km/h (0 Bft) N 0 0 min 0 UV-I 0 W/m 0,0 km/h (0 Bft)
19.02.2016 20:50 2,1 C 80 % 1019,9 hPa 0,0 mm 0,0 km/h (0 Bft) N 0 0 min 0 UV-I 0 W/m 0,0 km/h (0 Bft)
19.02.2016 21:00 1,8 C 80 % 1019,7 hPa 0,0 mm 0,0 km/h (0 Bft) W-SW 247 0 min 0 UV-I 0 W/m 1,6 km/h (1 Bft)
19.02.2016 21:10 1,6 C 81 % 1019,8 hPa 0,0 mm 0,0 km/h (0 Bft) N 0 0 min 0 UV-I 0 W/m 0,0 km/h (0 Bft)
19.02.2016 21:20 1,4 C 81 % 1019,6 hPa 0,0 mm 0,0 km/h (0 Bft) N 0 0 min 0 UV-I 0 W/m 0,0 km/h (0 Bft)
19.02.2016 21:30 1,3 C 81 % 1019,5 hPa 0,0 mm 0,0 km/h (0 Bft) N 0 0 min 0 UV-I 0 W/m 0,0 km/h (0 Bft)
19.02.2016 21:40 1,1 C 81 % 1019,6 hPa 0,0 mm 0,0 km/h (0 Bft) N 0 0 min 0 UV-I 0 W/m 0,0 km/h (0 Bft)
19.02.2016 21:50 0,8 C 81 % 1019,5 hPa 0,0 mm 0,0 km/h (0 Bft) N 0 0 min 0 UV-I 0 W/m 0,0 km/h (0 Bft)
19.02.2016 22:00 0,6 C 82 % 1019,5 hPa 0,0 mm 0,0 km/h (0 Bft) N 0 0 min 0 UV-I 0 W/m 0,0 km/h (0 Bft)
19.02.2016 22:10 0,4 C 82 % 1019,3 hPa 0,0 mm 0,0 km/h (0 Bft) N 0 0 min 0 UV-I 0 W/m 0,0 km/h (0 Bft)
19.02.2016 22:20 0,2 C 82 % 1019,1 hPa 0,0 mm 0,0 km/h (0 Bft) N 0 0 min 0 UV-I 0 W/m 0,0 km/h (0 Bft)
19.02.2016 22:30 0,0 C 82 % 1018,9 hPa 0,0 mm 0,0 km/h (0 Bft) N 0 0 min 0 UV-I 0 W/m 0,0 km/h (0 Bft)
19.02.2016 22:40 -0,2 C 83 % 1018,9 hPa 0,0 mm 0,0 km/h (0 Bft) W-SW 247 0 min 0 UV-I 0 W/m 3,2 km/h (1 Bft)
19.02.2016 22:50 -0,3 C 83 % 1018,6 hPa 0,0 mm 0,0 km/h (0 Bft) W-SW 247 0 min 0 UV-I 0 W/m 3,2 km/h (1 Bft)
19.02.2016 23:00 -0,1 C 84 % 1018,4 hPa 0,0 mm 0,0 km/h (0 Bft) W-SW 247 0 min 0 UV-I 0 W/m 3,2 km/h (1 Bft)
19.02.2016 23:10 0,1 C 85 % 1018,4 hPa 0,0 mm 1,6 km/h (1 Bft) SW 225 0 min 0 UV-I 0 W/m 8,0 km/h (2 Bft)
19.02.2016 23:20 0,4 C 85 % 1018,3 hPa 0,0 mm 1,6 km/h (1 Bft) SW 225 0 min 0 UV-I 0 W/m 6,4 km/h (2 Bft)
19.02.2016 23:30 0,8 C 85 % 1018,2 hPa 0,0 mm 1,6 km/h (1 Bft) SW 225 0 min 0 UV-I 0 W/m 9,7 km/h (2 Bft)
19.02.2016 23:40 1,2 C 85 % 1018,2 hPa 0,0 mm 1,6 km/h (1 Bft) S-SW 202 0 min 0 UV-I 0 W/m 16,1 km/h (3 Bft)
19.02.2016 23:50 1,5 C 85 % 1018,5 hPa 0,0 mm 1,6 km/h (1 Bft) S-SW 202 0 min 0 UV-I 0 W/m 8,0 km/h (2 Bft)
_ Min-Zeit 02:00 15:10 00:00 - 00:00 - - - - - 00:00
Minimum _ -2,0 C 75 % 1016,6 hPa - 0,0 km/h (0 Bft) - - - - - 0,0 km/h (0 Bft)
_ Max-Zeit 15:20 09:00 19:30 00:00 13:00 - - 09:50 11:30 12:00 23:40
Maximum _ 4,7 C 90 % 1020,5 hPa 0,0 mm 3,2 km/h
W-SW (1 Bft)
- - 10 min 1 UV-I 320 W/m 16,1 km/h
S (3 Bft)
Durchschnitt _ 1,0 C 83 % 1018,6 hPa #0,0 mm 0,6 km/h (0 Bft) W-SW - #2:40 h 1 UV-I 141 W/m 2,8 km/h (1 Bft)